Juneau, Alaska
Current Conditions -  °F | °C
As of 5:53 PM on Friday 21 Nov 2014 (Local Time) from PAJN Reporting Station
Overcast Overcast  
Wind Chill: 36°   Ceiling: 4000
Heat Index: 41°   Visibility: 10mi
Dew Point: 39°   Wind: 8mph
Humidity: 93%   Direction: 60°ENE
Pressure: 29.18"   Gusts: NA
Location:  58.37°N, 134.57°W
Report Text: PAJN 220253Z 06007KT 10SM FEW011 BKN040 OVC055 05/04 A2918 RMK AO2 RAE43 SLP880 PRESENT WX VCSH E-SW P0000 60006 T00500039 52005
Loading
Personal Weather Stations






























Interactive Weather Map New forecast layout! Learn more

10-Day Weather Forecast

Advertisements
Track Severe Weather on mobile